createdAt,value
2024-01-06T00:02:19.975Z,2.23
2024-01-06T00:04:49.133Z,2.25
2024-01-06T00:07:18.107Z,2.20
2024-01-06T00:09:48.195Z,2.33
2024-01-06T00:12:16.629Z,2.57
2024-01-06T00:14:46.536Z,2.41
2024-01-06T00:17:14.935Z,2.44
2024-01-06T00:19:43.421Z,2.45
2024-01-06T00:22:11.705Z,2.46
2024-01-06T00:24:40.345Z,2.43
2024-01-06T00:27:10.275Z,2.72
2024-01-06T00:29:38.442Z,2.69
2024-01-06T00:32:07.948Z,2.74
2024-01-06T00:34:36.746Z,2.57
2024-01-06T00:37:05.436Z,2.41
2024-01-06T00:39:34.763Z,2.38
2024-01-06T00:42:03.157Z,2.48
2024-01-06T00:44:34.344Z,2.48
2024-01-06T00:47:02.720Z,2.55
2024-01-06T00:49:31.546Z,2.77
2024-01-06T00:52:00.074Z,2.63
2024-01-06T00:54:28.453Z,2.54
2024-01-06T00:56:58.379Z,2.58
2024-01-06T00:59:27.030Z,2.40
2024-01-06T01:01:56.921Z,2.35
2024-01-06T01:04:25.562Z,2.26
2024-01-06T01:06:53.971Z,2.42
2024-01-06T01:09:22.221Z,2.46
2024-01-06T01:11:50.552Z,2.59
2024-01-06T01:14:20.493Z,2.67
2024-01-06T01:16:49.450Z,2.67
2024-01-06T01:19:19.420Z,2.74
2024-01-06T01:21:47.931Z,2.70
2024-01-06T01:24:16.292Z,2.77
2024-01-06T01:26:44.687Z,2.93
2024-01-06T01:29:13.018Z,2.97
2024-01-06T01:31:41.537Z,2.91
2024-01-06T01:34:10.085Z,2.82
2024-01-06T01:36:39.851Z,2.68
2024-01-06T01:39:08.140Z,2.55
2024-01-06T01:41:36.608Z,2.68
2024-01-06T01:44:05.449Z,2.65
2024-01-06T01:46:33.848Z,2.75
2024-01-06T01:49:03.207Z,2.56
2024-01-06T01:51:32.855Z,2.50
2024-01-06T01:54:04.178Z,2.54
2024-01-06T01:56:35.252Z,2.63
2024-01-06T01:59:04.233Z,2.75
2024-01-06T02:01:32.584Z,2.58
2024-01-06T02:04:01.032Z,2.62
2024-01-06T02:06:29.895Z,2.66
2024-01-06T02:08:58.219Z,2.59
2024-01-06T02:11:27.829Z,2.62
2024-01-06T02:13:56.080Z,2.70
2024-01-06T02:16:24.354Z,2.75
2024-01-06T02:18:52.955Z,2.82
2024-01-06T02:21:22.119Z,2.70
2024-01-06T02:23:51.949Z,2.77
2024-01-06T02:26:20.793Z,2.54
2024-01-06T02:28:50.444Z,2.58
2024-01-06T02:31:18.985Z,2.78
2024-01-06T02:33:47.420Z,2.64
2024-01-06T02:36:15.770Z,2.68
2024-01-06T02:38:44.390Z,2.81
2024-01-06T02:41:14.198Z,2.77
2024-01-06T02:43:43.025Z,2.86
2024-01-06T02:46:11.357Z,2.70
2024-01-06T02:48:39.869Z,2.64
2024-01-06T02:51:08.189Z,2.62
2024-01-06T02:53:36.712Z,2.71
2024-01-06T02:56:05.670Z,2.59
2024-01-06T02:58:35.471Z,2.57
2024-01-06T03:01:03.985Z,2.73
2024-01-06T03:03:32.478Z,2.59
2024-01-06T03:06:03.812Z,2.46
2024-01-06T03:08:32.492Z,2.45
2024-01-06T03:11:00.908Z,2.54
2024-01-06T03:13:29.387Z,2.60
2024-01-06T03:15:59.096Z,2.59
2024-01-06T03:18:28.702Z,2.57
2024-01-06T03:20:57.215Z,2.83
2024-01-06T03:23:25.689Z,2.71
2024-01-06T03:25:54.424Z,2.70
2024-01-06T03:28:22.669Z,2.78
2024-01-06T03:30:51.167Z,2.67
2024-01-06T03:33:20.938Z,2.66
2024-01-06T03:35:49.293Z,2.67
2024-01-06T03:38:17.718Z,2.59
2024-01-06T03:40:46.192Z,2.80
2024-01-06T03:43:15.192Z,2.80
2024-01-06T03:45:43.929Z,2.70
2024-01-06T03:48:12.534Z,2.47
2024-01-06T03:50:42.640Z,2.42
2024-01-06T03:53:10.952Z,2.35
2024-01-06T03:55:39.324Z,2.25
2024-01-06T03:58:07.881Z,2.23
2024-01-06T04:00:36.160Z,2.18
2024-01-06T04:03:04.553Z,2.16
2024-01-06T04:05:33.130Z,2.23
2024-01-06T04:08:02.739Z,2.15
2024-01-06T04:10:31.026Z,2.11
2024-01-06T04:12:59.561Z,2.11
2024-01-06T04:15:27.999Z,2.06
2024-01-06T04:17:57.413Z,2.11
2024-01-06T04:20:25.915Z,2.11
2024-01-06T04:22:54.533Z,2.07
2024-01-06T04:25:24.208Z,2.07
2024-01-06T04:27:52.724Z,2.04
2024-01-06T04:30:21.981Z,2.04
2024-01-06T04:32:50.764Z,2.14
2024-01-06T04:35:19.322Z,2.16
2024-01-06T04:37:48.927Z,2.23
2024-01-06T04:40:18.128Z,2.25
2024-01-06T04:42:47.956Z,2.05
2024-01-06T04:45:16.381Z,2.15
2024-01-06T04:47:45.013Z,2.03
2024-01-06T04:50:13.275Z,2.13
2024-01-06T04:52:41.570Z,2.04
2024-01-06T04:55:10.499Z,2.14
2024-01-06T04:57:39.127Z,2.05
2024-01-06T05:00:10.072Z,2.01
2024-01-06T05:02:39.420Z,2.11
2024-01-06T05:05:10.903Z,2.20
2024-01-06T05:07:39.349Z,2.35
2024-01-06T05:10:09.300Z,2.40
2024-01-06T05:12:37.715Z,2.29
2024-01-06T05:15:06.849Z,2.50
2024-01-06T05:17:36.882Z,2.23
2024-01-06T05:20:06.030Z,2.18
2024-01-06T05:22:34.300Z,2.09
2024-01-06T05:25:03.027Z,2.08
2024-01-06T05:27:31.680Z,2.05
2024-01-06T05:30:00.078Z,2.02
2024-01-06T05:32:28.548Z,2.07
2024-01-06T05:34:59.303Z,2.02
2024-01-06T05:37:27.601Z,1.96
2024-01-06T05:39:56.093Z,2.02
2024-01-06T05:42:25.193Z,1.99
2024-01-06T05:44:53.385Z,2.09
2024-01-06T05:47:22.103Z,2.09
2024-01-06T05:49:50.800Z,2.04
2024-01-06T05:52:20.981Z,2.14
2024-01-06T05:54:49.896Z,2.13
2024-01-06T05:57:19.387Z,2.15
2024-01-06T05:59:48.535Z,2.17
2024-01-06T06:02:17.659Z,2.09
2024-01-06T06:04:46.667Z,2.11
2024-01-06T06:07:15.328Z,2.07
2024-01-06T06:09:48.248Z,2.11
2024-01-06T06:12:17.030Z,2.31
2024-01-06T06:14:45.584Z,2.30
2024-01-06T06:17:14.224Z,2.33
2024-01-06T06:19:42.928Z,2.45
2024-01-06T06:22:11.745Z,2.55
2024-01-06T06:24:40.364Z,2.49
2024-01-06T06:27:10.258Z,2.46
2024-01-06T06:29:39.438Z,2.44
2024-01-06T06:32:09.218Z,2.41
2024-01-06T06:34:37.961Z,2.39
2024-01-06T06:37:06.830Z,2.49
2024-01-06T06:39:36.429Z,2.40
2024-01-06T06:42:05.176Z,2.62
2024-01-06T06:44:34.985Z,2.41
2024-01-06T06:47:03.948Z,2.48
2024-01-06T06:49:32.330Z,2.47
2024-01-06T06:52:00.845Z,2.46
2024-01-06T06:54:30.136Z,2.30
2024-01-06T06:56:58.448Z,2.19
2024-01-06T06:59:26.880Z,2.17
2024-01-06T07:01:56.724Z,2.20
2024-01-06T07:04:27.212Z,2.28
2024-01-06T07:06:55.627Z,2.42
2024-01-06T07:09:25.961Z,2.65
2024-01-06T07:11:54.295Z,2.52
2024-01-06T07:14:22.493Z,2.54
2024-01-06T07:16:50.815Z,2.62
2024-01-06T07:19:20.978Z,2.79
2024-01-06T07:21:49.769Z,2.82
2024-01-06T07:24:19.211Z,2.71
2024-01-06T07:26:47.503Z,2.75
2024-01-06T07:29:16.520Z,2.69
2024-01-06T07:31:45.036Z,2.70
2024-01-06T07:34:13.891Z,2.73
2024-01-06T07:36:43.667Z,2.85
2024-01-06T07:39:12.229Z,2.76
2024-01-06T07:41:40.634Z,2.77
2024-01-06T07:44:08.917Z,2.81
2024-01-06T07:46:38.715Z,2.80
2024-01-06T07:49:07.989Z,2.94
2024-01-06T07:51:36.867Z,2.87
2024-01-06T07:54:07.716Z,2.86
2024-01-06T07:56:36.308Z,3.11
2024-01-06T07:59:04.757Z,3.05
2024-01-06T08:01:33.177Z,3.03
2024-01-06T08:04:02.949Z,3.01
2024-01-06T08:06:31.372Z,2.91
2024-01-06T08:08:59.673Z,3.00
2024-01-06T08:11:29.377Z,3.14
2024-01-06T08:13:57.805Z,2.92
2024-01-06T08:16:26.261Z,3.06
2024-01-06T08:18:54.611Z,3.14
2024-01-06T08:21:23.207Z,3.10
2024-01-06T08:23:51.455Z,3.11
2024-01-06T08:26:20.000Z,3.17
2024-01-06T08:28:49.653Z,3.14
2024-01-06T08:31:18.197Z,3.01
2024-01-06T08:33:46.966Z,3.18
2024-01-06T08:36:15.550Z,3.15
2024-01-06T08:38:43.932Z,3.04
2024-01-06T08:41:12.218Z,3.02
2024-01-06T08:43:40.484Z,3.11
2024-01-06T08:46:10.489Z,3.19
2024-01-06T08:48:39.177Z,3.16
2024-01-06T08:51:07.652Z,2.94
2024-01-06T08:53:35.961Z,3.13
2024-01-06T08:56:04.771Z,3.06
2024-01-06T08:58:33.238Z,3.18
2024-01-06T09:01:02.183Z,3.19
2024-01-06T09:03:32.104Z,3.08
2024-01-06T09:06:01.511Z,3.16
2024-01-06T09:08:29.853Z,3.13
2024-01-06T09:10:58.691Z,3.01
2024-01-06T09:13:27.822Z,3.30
2024-01-06T09:15:57.126Z,3.30
2024-01-06T09:18:26.355Z,3.30
2024-01-06T09:20:57.258Z,3.23
2024-01-06T09:23:26.619Z,3.26
2024-01-06T09:25:55.564Z,3.23
2024-01-06T09:28:24.465Z,3.13
2024-01-06T09:30:56.221Z,3.15
2024-01-06T09:33:25.263Z,3.06
2024-01-06T09:35:56.013Z,3.13
2024-01-06T09:38:25.066Z,3.21
2024-01-06T09:40:54.413Z,3.21
2024-01-06T09:43:23.285Z,3.31
2024-01-06T09:45:58.994Z,3.27
2024-01-06T09:48:31.981Z,3.33
2024-01-06T09:51:04.902Z,3.28
2024-01-06T09:53:38.571Z,3.12
2024-01-06T09:56:08.065Z,3.11
2024-01-06T09:58:38.002Z,3.19
2024-01-06T10:01:07.830Z,3.23
2024-01-06T10:03:37.464Z,3.30
2024-01-06T10:06:07.681Z,3.30
2024-01-06T10:08:36.372Z,3.45
2024-01-06T10:11:04.851Z,3.22
2024-01-06T10:13:33.170Z,3.43
2024-01-06T10:16:02.279Z,3.33
2024-01-06T10:18:31.194Z,3.28
2024-01-06T10:21:00.276Z,3.44
2024-01-06T10:23:30.831Z,3.39
2024-01-06T10:26:01.172Z,3.26
2024-01-06T10:28:31.934Z,3.34
2024-01-06T10:31:01.247Z,3.38
2024-01-06T10:33:29.874Z,3.38
2024-01-06T10:35:58.407Z,3.43
2024-01-06T10:38:28.574Z,3.55
2024-01-06T10:41:02.122Z,3.37
2024-01-06T10:43:31.096Z,3.34
2024-01-06T10:46:00.487Z,3.38
2024-01-06T10:48:28.995Z,3.33
2024-01-06T10:50:57.926Z,3.32
2024-01-06T10:53:27.955Z,3.31
2024-01-06T10:55:56.873Z,3.36
2024-01-06T10:58:27.005Z,3.34
2024-01-06T11:00:56.076Z,3.29
2024-01-06T11:03:24.872Z,3.50
2024-01-06T11:05:53.990Z,3.48
2024-01-06T11:08:24.869Z,3.71
2024-01-06T11:10:53.340Z,3.75
2024-01-06T11:13:25.209Z,3.71
2024-01-06T11:15:55.581Z,3.65
2024-01-06T11:18:35.533Z,3.72
2024-01-06T11:21:23.494Z,3.82
2024-01-06T11:24:17.914Z,3.75
2024-01-06T11:26:47.463Z,3.68
2024-01-06T11:29:16.011Z,3.73
2024-01-06T11:31:46.072Z,3.76
2024-01-06T11:34:20.285Z,3.60
2024-01-06T11:36:50.642Z,3.74
2024-01-06T11:39:38.017Z,3.60
2024-01-06T11:42:09.733Z,3.64
2024-01-06T11:44:39.955Z,3.64
2024-01-06T11:47:10.453Z,3.76
2024-01-06T11:49:39.131Z,3.82
2024-01-06T11:52:08.230Z,3.83
2024-01-06T11:54:37.827Z,3.84
2024-01-06T11:57:06.683Z,3.78
2024-01-06T11:59:35.061Z,3.80
2024-01-06T12:02:03.430Z,3.71
2024-01-06T12:04:33.335Z,3.82
2024-01-06T12:07:08.767Z,3.69
2024-01-06T12:09:38.193Z,3.78
2024-01-06T12:12:07.696Z,3.65
2024-01-06T12:14:36.199Z,3.77
2024-01-06T12:17:06.340Z,3.85
2024-01-06T12:19:39.538Z,3.85
2024-01-06T12:22:09.503Z,3.89
2024-01-06T12:24:38.450Z,3.95
2024-01-06T12:27:09.484Z,3.95
2024-01-06T12:29:40.894Z,3.80
2024-01-06T12:32:09.808Z,3.76
2024-01-06T12:34:40.628Z,4.03
2024-01-06T12:37:09.588Z,4.05
2024-01-06T12:39:38.131Z,3.87
2024-01-06T12:42:07.015Z,3.88
2024-01-06T12:44:38.251Z,3.90
2024-01-06T12:47:06.834Z,3.76
2024-01-06T12:49:38.944Z,4.05
2024-01-06T12:52:09.743Z,3.91
2024-01-06T12:54:38.022Z,3.89
2024-01-06T12:57:06.713Z,3.89
2024-01-06T12:59:35.222Z,3.82
2024-01-06T13:02:03.932Z,3.83
2024-01-06T13:04:32.519Z,3.78
2024-01-06T13:07:03.149Z,3.76
2024-01-06T13:09:33.808Z,3.68
2024-01-06T13:12:02.940Z,3.55
2024-01-06T13:14:31.470Z,3.75
2024-01-06T13:16:59.886Z,3.70
2024-01-06T13:19:28.602Z,3.70
2024-01-06T13:21:57.097Z,3.66
2024-01-06T13:24:25.840Z,3.54
2024-01-06T13:26:55.525Z,3.54
2024-01-06T13:29:24.203Z,3.77
2024-01-06T13:31:53.974Z,3.52
2024-01-06T13:34:22.581Z,3.69
2024-01-06T13:36:52.181Z,3.52
2024-01-06T13:39:22.598Z,3.56
2024-01-06T13:41:51.572Z,3.52
2024-01-06T13:44:21.587Z,3.57
2024-01-06T13:46:52.190Z,3.52
2024-01-06T13:49:21.092Z,3.51
2024-01-06T13:51:51.362Z,3.42
2024-01-06T13:54:20.762Z,3.30
2024-01-06T13:56:49.975Z,3.37
2024-01-06T13:59:18.758Z,3.29
2024-01-06T14:01:48.749Z,3.38
2024-01-06T14:04:18.410Z,3.30
2024-01-06T14:06:49.387Z,3.33
2024-01-06T14:09:21.857Z,3.26
2024-01-06T14:11:50.321Z,3.20
2024-01-06T14:14:18.618Z,3.20
2024-01-06T14:16:48.637Z,3.31
2024-01-06T14:19:17.085Z,3.10
2024-01-06T14:21:45.847Z,3.13
2024-01-06T14:24:15.634Z,2.98
2024-01-06T14:26:44.439Z,3.04
2024-01-06T14:29:17.704Z,3.11
2024-01-06T14:31:46.356Z,3.11
2024-01-06T14:34:16.635Z,3.04
2024-01-06T14:36:49.428Z,3.05
2024-01-06T14:39:20.218Z,3.06
2024-01-06T14:41:48.777Z,3.09
2024-01-06T14:44:17.281Z,3.00
2024-01-06T14:46:45.902Z,2.97
2024-01-06T14:49:16.176Z,3.00
2024-01-06T14:51:46.854Z,2.97
2024-01-06T14:54:15.241Z,2.87
2024-01-06T14:56:44.080Z,2.97
2024-01-06T14:59:12.965Z,2.93
2024-01-06T15:01:45.970Z,2.78
2024-01-06T15:04:16.714Z,2.79
2024-01-06T15:06:45.676Z,2.76
2024-01-06T15:09:14.532Z,2.73
2024-01-06T15:11:42.845Z,2.84
2024-01-06T15:14:11.872Z,2.73
2024-01-06T15:16:43.629Z,2.66
2024-01-06T15:19:13.704Z,2.68
2024-01-06T15:21:44.638Z,2.74
2024-01-06T15:24:14.732Z,2.61
2024-01-06T15:26:44.082Z,2.54
2024-01-06T15:29:13.901Z,2.55
2024-01-06T15:31:42.770Z,2.62
2024-01-06T15:34:11.378Z,2.59
2024-01-06T15:36:40.294Z,2.79
2024-01-06T15:39:10.261Z,2.62
2024-01-06T15:41:39.277Z,2.68
2024-01-06T15:44:07.838Z,2.71
2024-01-06T15:46:36.330Z,2.63
2024-01-06T15:49:04.764Z,2.77
2024-01-06T15:51:33.451Z,2.65
2024-01-06T15:54:01.743Z,2.74
2024-01-06T15:56:31.393Z,2.52
2024-01-06T15:58:59.678Z,2.59
2024-01-06T16:01:28.079Z,2.72
2024-01-06T16:03:56.922Z,2.78
2024-01-06T16:06:25.624Z,2.83
2024-01-06T16:08:55.261Z,2.81
2024-01-06T16:11:24.046Z,2.79
2024-01-06T16:13:54.363Z,2.77
2024-01-06T16:16:24.142Z,2.77
2024-01-06T16:18:52.786Z,2.71
2024-01-06T16:21:25.078Z,2.68
2024-01-06T16:23:53.880Z,2.62
2024-01-06T16:26:22.413Z,2.58
2024-01-06T16:28:50.812Z,2.45
2024-01-06T16:31:25.865Z,2.52
2024-01-06T16:33:55.201Z,2.63
2024-01-06T16:36:24.618Z,2.56
2024-01-06T16:38:52.942Z,2.64
2024-01-06T16:41:27.316Z,2.52
2024-01-06T16:43:55.991Z,2.52
2024-01-06T16:46:26.106Z,2.49
2024-01-06T16:48:54.586Z,2.51
2024-01-06T16:51:23.151Z,2.49
2024-01-06T16:53:53.845Z,2.39
2024-01-06T16:56:22.393Z,2.21
2024-01-06T16:58:51.073Z,2.30
2024-01-06T17:01:19.741Z,2.44
2024-01-06T17:03:49.727Z,2.43
2024-01-06T17:06:18.164Z,2.35
2024-01-06T17:08:46.641Z,2.55
2024-01-06T17:11:16.149Z,2.37
2024-01-06T17:13:44.691Z,2.32
2024-01-06T17:16:13.417Z,2.41
2024-01-06T17:18:42.190Z,2.50
2024-01-06T17:21:15.822Z,2.62
2024-01-06T17:23:44.511Z,2.52
2024-01-06T17:26:12.893Z,2.53
2024-01-06T17:28:41.149Z,2.56
2024-01-06T17:31:09.837Z,2.59
2024-01-06T17:33:41.258Z,2.40
2024-01-06T17:36:09.577Z,2.35
2024-01-06T17:38:39.488Z,2.46
2024-01-06T17:41:08.954Z,2.46
2024-01-06T17:43:39.768Z,2.43
2024-01-06T17:46:08.181Z,2.42
2024-01-06T17:48:36.918Z,2.27
2024-01-06T17:51:06.201Z,2.34
2024-01-06T17:53:34.360Z,2.32
2024-01-06T17:56:03.950Z,2.47
2024-01-06T17:58:32.371Z,2.44
2024-01-06T18:01:00.931Z,2.54
2024-01-06T18:03:29.513Z,2.41
2024-01-06T18:05:58.041Z,2.27
2024-01-06T18:08:26.571Z,2.24
2024-01-06T18:10:55.077Z,2.25
2024-01-06T18:13:24.801Z,2.38
2024-01-06T18:15:53.912Z,2.41
2024-01-06T18:18:22.247Z,2.32
2024-01-06T18:20:51.836Z,2.51
2024-01-06T18:23:20.040Z,2.31
2024-01-06T18:25:48.258Z,2.26
2024-01-06T18:28:16.621Z,2.35
2024-01-06T18:30:46.368Z,2.40
2024-01-06T18:33:14.959Z,2.35
2024-01-06T18:35:43.312Z,2.48
2024-01-06T18:38:11.664Z,2.41
2024-01-06T18:40:39.873Z,2.24
2024-01-06T18:43:08.130Z,2.07
2024-01-06T18:45:36.477Z,1.98
2024-01-06T18:48:07.065Z,2.04
2024-01-06T18:50:35.668Z,1.98
2024-01-06T18:53:04.071Z,1.96
2024-01-06T18:55:32.500Z,1.98
2024-01-06T18:58:01.366Z,1.99
2024-01-06T19:00:29.632Z,2.03
2024-01-06T19:02:58.886Z,2.00
2024-01-06T19:05:31.240Z,2.24
2024-01-06T19:07:59.535Z,2.31
2024-01-06T19:10:27.723Z,2.16
2024-01-06T19:12:56.265Z,2.33
2024-01-06T19:15:24.676Z,2.19
2024-01-06T19:17:52.988Z,2.24
2024-01-06T19:20:21.287Z,2.38
2024-01-06T19:23:02.064Z,2.20
2024-01-06T19:25:35.470Z,2.22
2024-01-06T19:28:03.805Z,2.26
2024-01-06T19:30:32.152Z,2.27
2024-01-06T19:33:00.590Z,2.09
2024-01-06T19:35:29.050Z,2.32
2024-01-06T19:37:58.729Z,2.31
2024-01-06T19:40:27.076Z,2.31
2024-01-06T19:42:55.669Z,2.38
2024-01-06T19:45:25.168Z,2.26
2024-01-06T19:47:53.655Z,2.21
2024-01-06T19:50:22.128Z,2.31
2024-01-06T19:52:50.372Z,2.29
2024-01-06T19:55:20.175Z,2.33
2024-01-06T19:57:48.842Z,2.25
2024-01-06T20:00:17.842Z,2.32
2024-01-06T20:02:47.701Z,2.39
2024-01-06T20:05:16.178Z,2.44
2024-01-06T20:07:44.668Z,2.25
2024-01-06T20:10:13.444Z,2.33
2024-01-06T20:12:44.129Z,2.36
2024-01-06T20:15:12.529Z,2.23
2024-01-06T20:17:43.535Z,2.04
2024-01-06T20:20:13.150Z,2.12
2024-01-06T20:22:41.459Z,1.92
2024-01-06T20:25:10.829Z,2.10
2024-01-06T20:27:39.195Z,1.97
2024-01-06T20:30:10.395Z,2.06
2024-01-06T20:32:41.284Z,2.03
2024-01-06T20:35:11.304Z,2.03
2024-01-06T20:37:39.642Z,1.99
2024-01-06T20:40:11.009Z,2.21
2024-01-06T20:42:39.402Z,2.00
2024-01-06T20:45:10.557Z,2.21
2024-01-06T20:47:39.145Z,2.04
2024-01-06T20:50:08.632Z,2.20
2024-01-06T20:52:38.195Z,2.01
2024-01-06T20:55:08.079Z,1.93
2024-01-06T20:57:36.458Z,1.90
2024-01-06T21:00:05.637Z,1.99
2024-01-06T21:02:35.554Z,1.96
2024-01-06T21:05:06.122Z,1.97
2024-01-06T21:07:35.688Z,1.97
2024-01-06T21:10:05.440Z,1.92
2024-01-06T21:12:34.775Z,2.01
2024-01-06T21:15:03.381Z,1.72
2024-01-06T21:17:32.919Z,1.82
2024-01-06T21:20:03.870Z,1.95
2024-01-06T21:22:34.649Z,1.81
2024-01-06T21:25:04.727Z,1.91
2024-01-06T21:27:35.265Z,1.99
2024-01-06T21:30:06.737Z,1.84
2024-01-06T21:32:35.456Z,1.90
2024-01-06T21:35:05.988Z,1.86
2024-01-06T21:37:34.573Z,1.80
2024-01-06T21:40:06.828Z,1.95
2024-01-06T21:42:35.221Z,1.86
2024-01-06T21:45:03.817Z,1.88
2024-01-06T21:47:32.230Z,2.04
2024-01-06T21:50:00.480Z,2.02
2024-01-06T21:52:30.062Z,2.18
2024-01-06T21:54:58.389Z,2.09
2024-01-06T21:57:26.872Z,1.99
2024-01-06T21:59:55.149Z,2.28
2024-01-06T22:02:23.375Z,2.27
2024-01-06T22:04:51.684Z,2.19
2024-01-06T22:07:20.676Z,2.17
2024-01-06T22:09:50.402Z,2.07
2024-01-06T22:12:19.056Z,2.12
2024-01-06T22:14:47.444Z,2.14
2024-01-06T22:17:15.727Z,1.94
2024-01-06T22:19:45.002Z,2.17
2024-01-06T22:22:13.220Z,2.26
2024-01-06T22:24:42.792Z,1.93
2024-01-06T22:27:13.213Z,1.86
2024-01-06T22:29:44.402Z,1.95
2024-01-06T22:32:13.298Z,1.86
2024-01-06T22:34:45.563Z,1.96
2024-01-06T22:37:14.183Z,2.12
2024-01-06T22:39:44.168Z,2.14
2024-01-06T22:42:13.847Z,2.10
2024-01-06T22:44:42.548Z,1.99
2024-01-06T22:47:10.979Z,1.87
2024-01-06T22:49:39.281Z,1.73
2024-01-06T22:52:07.701Z,1.67
2024-01-06T22:54:36.164Z,1.68
2024-01-06T22:57:04.675Z,1.62
2024-01-06T22:59:34.286Z,1.43
2024-01-06T23:02:02.656Z,1.43
2024-01-06T23:04:31.063Z,1.33
2024-01-06T23:06:59.442Z,1.33
2024-01-06T23:09:27.681Z,1.38
2024-01-06T23:11:55.938Z,1.37
2024-01-06T23:14:24.158Z,1.45
2024-01-06T23:16:53.755Z,1.40
2024-01-06T23:19:22.268Z,1.40
2024-01-06T23:21:50.638Z,1.47
2024-01-06T23:24:19.744Z,1.61
2024-01-06T23:26:48.200Z,1.49
2024-01-06T23:29:16.789Z,1.58
2024-01-06T23:31:45.415Z,1.36
2024-01-06T23:36:46.484Z,1.30
2024-01-06T23:39:14.847Z,1.22
2024-01-06T23:41:43.129Z,1.19
2024-01-06T23:44:11.387Z,1.49
2024-01-06T23:46:39.780Z,1.26
2024-01-06T23:49:08.272Z,1.19
2024-01-06T23:51:38.032Z,1.19
2024-01-06T23:54:06.661Z,1.25
2024-01-06T23:56:35.049Z,1.18
2024-01-06T23:59:03.482Z,1.27
